sensor_id;sensor_type;location;lat;lon;timestamp;P1;P2;P0
69123;PMS5003;56232;53.384;-2.732;2023-05-07T00:01:24;22;21;
69123;PMS5003;56232;53.384;-2.732;2023-05-07T00:03:49;25;22;
69123;PMS5003;56232;53.384;-2.732;2023-05-07T00:06:15;20;19;
69123;PMS5003;56232;53.384;-2.732;2023-05-07T00:08:40;17;17;
69123;PMS5003;56232;53.384;-2.732;2023-05-07T00:11:06;24;20;
69123;PMS5003;56232;53.384;-2.732;2023-05-07T00:13:32;24;21;
69123;PMS5003;56232;53.384;-2.732;2023-05-07T00:15:57;19;19;
69123;PMS5003;56232;53.384;-2.732;2023-05-07T00:18:23;20;19;
69123;PMS5003;56232;53.384;-2.732;2023-05-07T00:20:48;22;19;
69123;PMS5003;56232;53.384;-2.732;2023-05-07T00:23:14;18;18;
69123;PMS5003;56232;53.384;-2.732;2023-05-07T00:25:39;22;19;
69123;PMS5003;56232;53.384;-2.732;2023-05-07T00:28:05;19;18;
69123;PMS5003;56232;53.384;-2.732;2023-05-07T00:30:30;18;18;
69123;PMS5003;56232;53.384;-2.732;2023-05-07T00:32:55;15;15;
69123;PMS5003;56232;53.384;-2.732;2023-05-07T00:35:21;18;18;
69123;PMS5003;56232;53.384;-2.732;2023-05-07T00:37:46;21;18;
69123;PMS5003;56232;53.384;-2.732;2023-05-07T00:40:12;16;16;
69123;PMS5003;56232;53.384;-2.732;2023-05-07T00:42:37;15;15;
69123;PMS5003;56232;53.384;-2.732;2023-05-07T00:45:02;18;17;
69123;PMS5003;56232;53.384;-2.732;2023-05-07T00:47:27;19;18;
69123;PMS5003;56232;53.384;-2.732;2023-05-07T00:49:53;18;18;
69123;PMS5003;56232;53.384;-2.732;2023-05-07T00:52:19;14;14;
69123;PMS5003;56232;53.384;-2.732;2023-05-07T00:54:44;16;16;
69123;PMS5003;56232;53.384;-2.732;2023-05-07T00:57:10;16;16;
69123;PMS5003;56232;53.384;-2.732;2023-05-07T00:59:35;18;18;
69123;PMS5003;56232;53.384;-2.732;2023-05-07T01:02:00;19;18;
69123;PMS5003;56232;53.384;-2.732;2023-05-07T01:04:25;17;16;
69123;PMS5003;56232;53.384;-2.732;2023-05-07T01:06:51;18;14;
69123;PMS5003;56232;53.384;-2.732;2023-05-07T01:09:16;16;16;
69123;PMS5003;56232;53.384;-2.732;2023-05-07T01:11:42;23;22;
69123;PMS5003;56232;53.384;-2.732;2023-05-07T01:14:07;22;22;
69123;PMS5003;56232;53.384;-2.732;2023-05-07T01:16:32;27;23;
69123;PMS5003;56232;53.384;-2.732;2023-05-07T01:18:57;26;26;
69123;PMS5003;56232;53.384;-2.732;2023-05-07T01:21:24;25;23;
69123;PMS5003;56232;53.384;-2.732;2023-05-07T01:23:48;32;29;
69123;PMS5003;56232;53.384;-2.732;2023-05-07T01:26:13;25;24;
69123;PMS5003;56232;53.384;-2.732;2023-05-07T01:28:38;27;25;
69123;PMS5003;56232;53.384;-2.732;2023-05-07T01:31:04;29;25;
69123;PMS5003;56232;53.384;-2.732;2023-05-07T01:33:30;34;29;
69123;PMS5003;56232;53.384;-2.732;2023-05-07T01:35:55;28;25;
69123;PMS5003;56232;53.384;-2.732;2023-05-07T01:38:20;29;29;
69123;PMS5003;56232;53.384;-2.732;2023-05-07T01:40:45;33;30;
69123;PMS5003;56232;53.384;-2.732;2023-05-07T01:43:11;32;29;
69123;PMS5003;56232;53.384;-2.732;2023-05-07T01:45:37;30;30;
69123;PMS5003;56232;53.384;-2.732;2023-05-07T01:48:03;33;32;
69123;PMS5003;56232;53.384;-2.732;2023-05-07T01:50:27;30;29;
69123;PMS5003;56232;53.384;-2.732;2023-05-07T01:52:52;28;28;
69123;PMS5003;56232;53.384;-2.732;2023-05-07T01:55:18;34;34;
69123;PMS5003;56232;53.384;-2.732;2023-05-07T01:57:43;35;32;
69123;PMS5003;56232;53.384;-2.732;2023-05-07T02:00:09;31;28;
69123;PMS5003;56232;53.384;-2.732;2023-05-07T02:02:35;42;39;
69123;PMS5003;56232;53.384;-2.732;2023-05-07T02:05:00;38;33;
69123;PMS5003;56232;53.384;-2.732;2023-05-07T02:07:26;40;36;
69123;PMS5003;56232;53.384;-2.732;2023-05-07T02:09:51;37;35;
69123;PMS5003;56232;53.384;-2.732;2023-05-07T02:12:16;31;29;
69123;PMS5003;56232;53.384;-2.732;2023-05-07T02:14:42;35;29;
69123;PMS5003;56232;53.384;-2.732;2023-05-07T02:17:07;36;33;
69123;PMS5003;56232;53.384;-2.732;2023-05-07T02:19:32;35;31;
69123;PMS5003;56232;53.384;-2.732;2023-05-07T02:21:57;36;31;
69123;PMS5003;56232;53.384;-2.732;2023-05-07T02:24:23;36;31;
69123;PMS5003;56232;53.384;-2.732;2023-05-07T02:26:49;35;31;
69123;PMS5003;56232;53.384;-2.732;2023-05-07T02:29:14;38;35;
69123;PMS5003;56232;53.384;-2.732;2023-05-07T02:31:40;34;31;
69123;PMS5003;56232;53.384;-2.732;2023-05-07T02:34:05;39;32;
69123;PMS5003;56232;53.384;-2.732;2023-05-07T02:36:31;37;33;
69123;PMS5003;56232;53.384;-2.732;2023-05-07T02:38:57;28;27;
69123;PMS5003;56232;53.384;-2.732;2023-05-07T02:41:22;35;33;
69123;PMS5003;56232;53.384;-2.732;2023-05-07T02:43:48;38;34;
69123;PMS5003;56232;53.384;-2.732;2023-05-07T02:46:14;36;32;
69123;PMS5003;56232;53.384;-2.732;2023-05-07T02:48:39;33;31;
69123;PMS5003;56232;53.384;-2.732;2023-05-07T02:51:05;40;38;
69123;PMS5003;56232;53.384;-2.732;2023-05-07T02:53:31;34;31;
69123;PMS5003;56232;53.384;-2.732;2023-05-07T02:55:56;37;32;
69123;PMS5003;56232;53.384;-2.732;2023-05-07T02:58:21;31;30;
69123;PMS5003;56232;53.384;-2.732;2023-05-07T03:00:46;40;35;
69123;PMS5003;56232;53.384;-2.732;2023-05-07T03:03:12;37;32;
69123;PMS5003;56232;53.384;-2.732;2023-05-07T03:05:37;44;40;
69123;PMS5003;56232;53.384;-2.732;2023-05-07T03:08:03;36;30;
69123;PMS5003;56232;53.384;-2.732;2023-05-07T03:10:28;40;36;
69123;PMS5003;56232;53.384;-2.732;2023-05-07T03:12:54;37;32;
69123;PMS5003;56232;53.384;-2.732;2023-05-07T03:15:19;38;32;
69123;PMS5003;56232;53.384;-2.732;2023-05-07T03:17:45;29;28;
69123;PMS5003;56232;53.384;-2.732;2023-05-07T03:20:11;31;28;
69123;PMS5003;56232;53.384;-2.732;2023-05-07T03:22:36;35;34;
69123;PMS5003;56232;53.384;-2.732;2023-05-07T03:25:03;32;30;
69123;PMS5003;56232;53.384;-2.732;2023-05-07T03:27:28;40;34;
69123;PMS5003;56232;53.384;-2.732;2023-05-07T03:29:53;37;32;
69123;PMS5003;56232;53.384;-2.732;2023-05-07T03:32:19;32;31;
69123;PMS5003;56232;53.384;-2.732;2023-05-07T03:34:44;27;27;
69123;PMS5003;56232;53.384;-2.732;2023-05-07T03:37:10;34;32;
69123;PMS5003;56232;53.384;-2.732;2023-05-07T03:39:35;35;30;
69123;PMS5003;56232;53.384;-2.732;2023-05-07T03:42:01;36;33;
69123;PMS5003;56232;53.384;-2.732;2023-05-07T03:44:26;29;29;
69123;PMS5003;56232;53.384;-2.732;2023-05-07T03:46:51;37;31;
69123;PMS5003;56232;53.384;-2.732;2023-05-07T03:49:17;36;34;
69123;PMS5003;56232;53.384;-2.732;2023-05-07T03:51:42;33;32;
69123;PMS5003;56232;53.384;-2.732;2023-05-07T03:54:07;25;25;
69123;PMS5003;56232;53.384;-2.732;2023-05-07T03:56:33;37;32;
69123;PMS5003;56232;53.384;-2.732;2023-05-07T03:58:59;28;28;
69123;PMS5003;56232;53.384;-2.732;2023-05-07T04:01:24;31;30;
69123;PMS5003;56232;53.384;-2.732;2023-05-07T04:03:49;29;28;
69123;PMS5003;56232;53.384;-2.732;2023-05-07T04:06:15;31;29;
69123;PMS5003;56232;53.384;-2.732;2023-05-07T04:08:39;34;30;
69123;PMS5003;56232;53.384;-2.732;2023-05-07T04:11:04;36;34;
69123;PMS5003;56232;53.384;-2.732;2023-05-07T04:13:30;30;29;
69123;PMS5003;56232;53.384;-2.732;2023-05-07T04:15:55;36;31;
69123;PMS5003;56232;53.384;-2.732;2023-05-07T04:18:20;27;26;
69123;PMS5003;56232;53.384;-2.732;2023-05-07T04:20:46;27;25;
69123;PMS5003;56232;53.384;-2.732;2023-05-07T04:23:11;33;28;
69123;PMS5003;56232;53.384;-2.732;2023-05-07T04:25:37;30;28;
69123;PMS5003;56232;53.384;-2.732;2023-05-07T04:28:03;27;25;
69123;PMS5003;56232;53.384;-2.732;2023-05-07T04:30:28;23;22;
69123;PMS5003;56232;53.384;-2.732;2023-05-07T04:32:53;28;25;
69123;PMS5003;56232;53.384;-2.732;2023-05-07T04:35:18;27;24;
69123;PMS5003;56232;53.384;-2.732;2023-05-07T04:37:44;29;24;
69123;PMS5003;56232;53.384;-2.732;2023-05-07T04:40:10;28;25;
69123;PMS5003;56232;53.384;-2.732;2023-05-07T04:42:35;22;21;
69123;PMS5003;56232;53.384;-2.732;2023-05-07T04:45:01;25;25;
69123;PMS5003;56232;53.384;-2.732;2023-05-07T04:47:26;23;23;
69123;PMS5003;56232;53.384;-2.732;2023-05-07T04:49:51;26;25;
69123;PMS5003;56232;53.384;-2.732;2023-05-07T04:52:17;20;18;
69123;PMS5003;56232;53.384;-2.732;2023-05-07T04:54:42;21;21;
69123;PMS5003;56232;53.384;-2.732;2023-05-07T04:57:08;25;23;
69123;PMS5003;56232;53.384;-2.732;2023-05-07T04:59:33;22;19;
69123;PMS5003;56232;53.384;-2.732;2023-05-07T05:01:59;25;21;
69123;PMS5003;56232;53.384;-2.732;2023-05-07T05:04:24;21;19;
69123;PMS5003;56232;53.384;-2.732;2023-05-07T05:06:50;25;20;
69123;PMS5003;56232;53.384;-2.732;2023-05-07T05:09:15;19;18;
69123;PMS5003;56232;53.384;-2.732;2023-05-07T05:11:40;20;18;
69123;PMS5003;56232;53.384;-2.732;2023-05-07T05:14:05;21;19;
69123;PMS5003;56232;53.384;-2.732;2023-05-07T05:16:31;16;16;
69123;PMS5003;56232;53.384;-2.732;2023-05-07T05:18:56;16;15;
69123;PMS5003;56232;53.384;-2.732;2023-05-07T05:21:22;14;14;
69123;PMS5003;56232;53.384;-2.732;2023-05-07T05:23:47;16;14;
69123;PMS5003;56232;53.384;-2.732;2023-05-07T05:26:13;18;16;
69123;PMS5003;56232;53.384;-2.732;2023-05-07T05:28:38;18;15;
69123;PMS5003;56232;53.384;-2.732;2023-05-07T05:31:04;14;14;
69123;PMS5003;56232;53.384;-2.732;2023-05-07T05:33:29;11;10;
69123;PMS5003;56232;53.384;-2.732;2023-05-07T05:35:54;15;13;
69123;PMS5003;56232;53.384;-2.732;2023-05-07T05:38:20;16;14;
69123;PMS5003;56232;53.384;-2.732;2023-05-07T05:40:46;14;12;
69123;PMS5003;56232;53.384;-2.732;2023-05-07T05:43:12;12;11;
69123;PMS5003;56232;53.384;-2.732;2023-05-07T05:45:37;11;10;
69123;PMS5003;56232;53.384;-2.732;2023-05-07T05:48:04;9;8;
69123;PMS5003;56232;53.384;-2.732;2023-05-07T05:50:28;8;8;
69123;PMS5003;56232;53.384;-2.732;2023-05-07T05:52:54;11;11;
69123;PMS5003;56232;53.384;-2.732;2023-05-07T05:55:20;11;11;
69123;PMS5003;56232;53.384;-2.732;2023-05-07T05:57:45;12;11;
69123;PMS5003;56232;53.384;-2.732;2023-05-07T06:00:11;6;5;
69123;PMS5003;56232;53.384;-2.732;2023-05-07T06:02:36;7;7;
69123;PMS5003;56232;53.384;-2.732;2023-05-07T06:05:02;8;7;
69123;PMS5003;56232;53.384;-2.732;2023-05-07T06:07:27;4;4;
69123;PMS5003;56232;53.384;-2.732;2023-05-07T06:09:53;5;4;
69123;PMS5003;56232;53.384;-2.732;2023-05-07T06:12:18;7;6;
69123;PMS5003;56232;53.384;-2.732;2023-05-07T06:14:44;6;6;
69123;PMS5003;56232;53.384;-2.732;2023-05-07T06:17:09;7;6;
69123;PMS5003;56232;53.384;-2.732;2023-05-07T06:19:35;7;7;
69123;PMS5003;56232;53.384;-2.732;2023-05-07T06:22:00;5;5;
69123;PMS5003;56232;53.384;-2.732;2023-05-07T06:24:26;7;7;
69123;PMS5003;56232;53.384;-2.732;2023-05-07T06:26:51;6;5;
69123;PMS5003;56232;53.384;-2.732;2023-05-07T06:29:17;9;8;
69123;PMS5003;56232;53.384;-2.732;2023-05-07T06:31:42;10;8;
69123;PMS5003;56232;53.384;-2.732;2023-05-07T06:34:08;4;4;
69123;PMS5003;56232;53.384;-2.732;2023-05-07T06:36:33;7;6;
69123;PMS5003;56232;53.384;-2.732;2023-05-07T06:38:59;7;7;
69123;PMS5003;56232;53.384;-2.732;2023-05-07T06:41:24;5;5;
69123;PMS5003;56232;53.384;-2.732;2023-05-07T06:43:50;6;6;
69123;PMS5003;56232;53.384;-2.732;2023-05-07T06:46:15;5;5;
69123;PMS5003;56232;53.384;-2.732;2023-05-07T06:48:41;9;8;
69123;PMS5003;56232;53.384;-2.732;2023-05-07T06:51:06;11;10;
69123;PMS5003;56232;53.384;-2.732;2023-05-07T06:53:32;8;8;
69123;PMS5003;56232;53.384;-2.732;2023-05-07T06:55:57;5;5;
69123;PMS5003;56232;53.384;-2.732;2023-05-07T06:58:22;7;7;
69123;PMS5003;56232;53.384;-2.732;2023-05-07T07:00:48;8;8;
69123;PMS5003;56232;53.384;-2.732;2023-05-07T07:03:14;8;8;
69123;PMS5003;56232;53.384;-2.732;2023-05-07T07:05:39;12;10;
69123;PMS5003;56232;53.384;-2.732;2023-05-07T07:08:05;8;7;
69123;PMS5003;56232;53.384;-2.732;2023-05-07T07:10:30;8;7;
69123;PMS5003;56232;53.384;-2.732;2023-05-07T07:12:55;7;7;
69123;PMS5003;56232;53.384;-2.732;2023-05-07T07:15:21;8;8;
69123;PMS5003;56232;53.384;-2.732;2023-05-07T07:17:47;8;7;
69123;PMS5003;56232;53.384;-2.732;2023-05-07T07:20:12;10;8;
69123;PMS5003;56232;53.384;-2.732;2023-05-07T07:22:37;9;8;
69123;PMS5003;56232;53.384;-2.732;2023-05-07T07:25:03;9;9;
69123;PMS5003;56232;53.384;-2.732;2023-05-07T07:27:28;7;6;
69123;PMS5003;56232;53.384;-2.732;2023-05-07T07:29:54;7;6;
69123;PMS5003;56232;53.384;-2.732;2023-05-07T07:32:19;8;7;
69123;PMS5003;56232;53.384;-2.732;2023-05-07T07:34:45;7;5;
69123;PMS5003;56232;53.384;-2.732;2023-05-07T07:37:10;6;6;
69123;PMS5003;56232;53.384;-2.732;2023-05-07T07:39:35;7;6;
69123;PMS5003;56232;53.384;-2.732;2023-05-07T07:42:01;4;4;
69123;PMS5003;56232;53.384;-2.732;2023-05-07T07:44:27;3;3;
69123;PMS5003;56232;53.384;-2.732;2023-05-07T07:46:52;6;6;
69123;PMS5003;56232;53.384;-2.732;2023-05-07T07:49:17;8;8;
69123;PMS5003;56232;53.384;-2.732;2023-05-07T07:51:43;7;7;
69123;PMS5003;56232;53.384;-2.732;2023-05-07T07:54:08;7;5;
69123;PMS5003;56232;53.384;-2.732;2023-05-07T07:56:34;9;8;
69123;PMS5003;56232;53.384;-2.732;2023-05-07T07:59:00;6;6;
69123;PMS5003;56232;53.384;-2.732;2023-05-07T08:01:25;5;5;
69123;PMS5003;56232;53.384;-2.732;2023-05-07T08:03:51;6;6;
69123;PMS5003;56232;53.384;-2.732;2023-05-07T08:06:16;5;5;
69123;PMS5003;56232;53.384;-2.732;2023-05-07T08:08:41;5;5;
69123;PMS5003;56232;53.384;-2.732;2023-05-07T08:11:07;8;7;
69123;PMS5003;56232;53.384;-2.732;2023-05-07T08:13:33;6;6;
69123;PMS5003;56232;53.384;-2.732;2023-05-07T08:15:58;4;4;
69123;PMS5003;56232;53.384;-2.732;2023-05-07T08:18:24;6;5;
69123;PMS5003;56232;53.384;-2.732;2023-05-07T08:20:49;5;5;
69123;PMS5003;56232;53.384;-2.732;2023-05-07T08:23:14;5;4;
69123;PMS5003;56232;53.384;-2.732;2023-05-07T08:25:40;4;4;
69123;PMS5003;56232;53.384;-2.732;2023-05-07T08:28:05;6;6;
69123;PMS5003;56232;53.384;-2.732;2023-05-07T08:30:31;5;5;
69123;PMS5003;56232;53.384;-2.732;2023-05-07T08:32:56;5;5;
69123;PMS5003;56232;53.384;-2.732;2023-05-07T08:35:22;7;6;
69123;PMS5003;56232;53.384;-2.732;2023-05-07T08:37:47;6;6;
69123;PMS5003;56232;53.384;-2.732;2023-05-07T08:40:13;6;6;
69123;PMS5003;56232;53.384;-2.732;2023-05-07T08:42:38;5;5;
69123;PMS5003;56232;53.384;-2.732;2023-05-07T08:45:04;8;7;
69123;PMS5003;56232;53.384;-2.732;2023-05-07T08:47:31;6;6;
69123;PMS5003;56232;53.384;-2.732;2023-05-07T08:49:55;7;7;
69123;PMS5003;56232;53.384;-2.732;2023-05-07T08:52:20;10;8;
69123;PMS5003;56232;53.384;-2.732;2023-05-07T08:54:46;7;7;
69123;PMS5003;56232;53.384;-2.732;2023-05-07T08:57:11;10;9;
69123;PMS5003;56232;53.384;-2.732;2023-05-07T08:59:37;5;5;
69123;PMS5003;56232;53.384;-2.732;2023-05-07T09:02:02;7;7;
69123;PMS5003;56232;53.384;-2.732;2023-05-07T09:04:27;7;6;
69123;PMS5003;56232;53.384;-2.732;2023-05-07T09:06:53;10;10;
69123;PMS5003;56232;53.384;-2.732;2023-05-07T09:09:18;5;5;
69123;PMS5003;56232;53.384;-2.732;2023-05-07T09:11:44;7;7;
69123;PMS5003;56232;53.384;-2.732;2023-05-07T09:14:09;8;7;
69123;PMS5003;56232;53.384;-2.732;2023-05-07T09:16:35;7;6;
69123;PMS5003;56232;53.384;-2.732;2023-05-07T09:19:00;6;6;
69123;PMS5003;56232;53.384;-2.732;2023-05-07T09:21:26;7;6;
69123;PMS5003;56232;53.384;-2.732;2023-05-07T09:23:52;7;7;
69123;PMS5003;56232;53.384;-2.732;2023-05-07T09:26:17;3;2;
69123;PMS5003;56232;53.384;-2.732;2023-05-07T09:28:43;6;6;
69123;PMS5003;56232;53.384;-2.732;2023-05-07T09:31:08;7;7;
69123;PMS5003;56232;53.384;-2.732;2023-05-07T09:33:34;10;8;
69123;PMS5003;56232;53.384;-2.732;2023-05-07T09:36:01;6;5;
69123;PMS5003;56232;53.384;-2.732;2023-05-07T09:38:25;6;6;
69123;PMS5003;56232;53.384;-2.732;2023-05-07T09:43:16;7;6;
69123;PMS5003;56232;53.384;-2.732;2023-05-07T09:45:41;6;6;
69123;PMS5003;56232;53.384;-2.732;2023-05-07T09:48:07;5;5;
69123;PMS5003;56232;53.384;-2.732;2023-05-07T09:50:35;6;5;
69123;PMS5003;56232;53.384;-2.732;2023-05-07T09:52:58;4;4;
69123;PMS5003;56232;53.384;-2.732;2023-05-07T09:55:23;6;6;
69123;PMS5003;56232;53.384;-2.732;2023-05-07T09:57:49;6;6;
69123;PMS5003;56232;53.384;-2.732;2023-05-07T10:00:14;7;6;
69123;PMS5003;56232;53.384;-2.732;2023-05-07T10:02:40;7;6;
69123;PMS5003;56232;53.384;-2.732;2023-05-07T10:05:06;7;6;
69123;PMS5003;56232;53.384;-2.732;2023-05-07T10:07:31;7;7;
69123;PMS5003;56232;53.384;-2.732;2023-05-07T10:09:56;7;6;
69123;PMS5003;56232;53.384;-2.732;2023-05-07T10:12:22;7;6;
69123;PMS5003;56232;53.384;-2.732;2023-05-07T10:14:47;6;5;
69123;PMS5003;56232;53.384;-2.732;2023-05-07T10:17:13;4;4;
69123;PMS5003;56232;53.384;-2.732;2023-05-07T10:19:38;5;5;
69123;PMS5003;56232;53.384;-2.732;2023-05-07T10:22:05;5;4;
69123;PMS5003;56232;53.384;-2.732;2023-05-07T10:24:31;6;6;
69123;PMS5003;56232;53.384;-2.732;2023-05-07T10:26:55;4;4;
69123;PMS5003;56232;53.384;-2.732;2023-05-07T10:29:24;8;7;
69123;PMS5003;56232;53.384;-2.732;2023-05-07T10:31:49;5;5;
69123;PMS5003;56232;53.384;-2.732;2023-05-07T10:34:12;3;3;
69123;PMS5003;56232;53.384;-2.732;2023-05-07T10:36:37;7;6;
69123;PMS5003;56232;53.384;-2.732;2023-05-07T10:39:03;7;5;
69123;PMS5003;56232;53.384;-2.732;2023-05-07T10:41:28;9;9;
69123;PMS5003;56232;53.384;-2.732;2023-05-07T10:43:54;7;6;
69123;PMS5003;56232;53.384;-2.732;2023-05-07T10:46:20;6;6;
69123;PMS5003;56232;53.384;-2.732;2023-05-07T10:53:36;7;7;
69123;PMS5003;56232;53.384;-2.732;2023-05-07T10:58:27;11;10;
69123;PMS5003;56232;53.384;-2.732;2023-05-07T11:00:55;13;12;
69123;PMS5003;56232;53.384;-2.732;2023-05-07T11:03:18;10;9;
69123;PMS5003;56232;53.384;-2.732;2023-05-07T11:05:43;9;9;
69123;PMS5003;56232;53.384;-2.732;2023-05-07T11:08:09;14;14;
69123;PMS5003;56232;53.384;-2.732;2023-05-07T11:13:00;14;13;
69123;PMS5003;56232;53.384;-2.732;2023-05-07T11:17:52;10;9;
69123;PMS5003;56232;53.384;-2.732;2023-05-07T11:20:17;7;6;
69123;PMS5003;56232;53.384;-2.732;2023-05-07T11:22:42;10;10;
69123;PMS5003;56232;53.384;-2.732;2023-05-07T11:25:08;9;9;
69123;PMS5003;56232;53.384;-2.732;2023-05-07T11:27:33;13;13;
69123;PMS5003;56232;53.384;-2.732;2023-05-07T11:29:59;16;15;
69123;PMS5003;56232;53.384;-2.732;2023-05-07T11:32:24;15;15;
69123;PMS5003;56232;53.384;-2.732;2023-05-07T11:34:51;14;13;
69123;PMS5003;56232;53.384;-2.732;2023-05-07T11:37:16;14;14;
69123;PMS5003;56232;53.384;-2.732;2023-05-07T11:39:41;10;10;
69123;PMS5003;56232;53.384;-2.732;2023-05-07T11:46:58;13;13;
69123;PMS5003;56232;53.384;-2.732;2023-05-07T11:49:25;13;12;
69123;PMS5003;56232;53.384;-2.732;2023-05-07T11:51:49;11;11;
69123;PMS5003;56232;53.384;-2.732;2023-05-07T11:54:16;13;11;
69123;PMS5003;56232;53.384;-2.732;2023-05-07T11:56:40;9;9;
69123;PMS5003;56232;53.384;-2.732;2023-05-07T11:59:05;16;15;
69123;PMS5003;56232;53.384;-2.732;2023-05-07T12:01:31;16;16;
69123;PMS5003;56232;53.384;-2.732;2023-05-07T12:03:56;18;18;
69123;PMS5003;56232;53.384;-2.732;2023-05-07T12:06:22;18;17;
69123;PMS5003;56232;53.384;-2.732;2023-05-07T12:08:47;15;14;
69123;PMS5003;56232;53.384;-2.732;2023-05-07T12:11:13;14;14;
69123;PMS5003;56232;53.384;-2.732;2023-05-07T12:13:38;14;14;
69123;PMS5003;56232;53.384;-2.732;2023-05-07T12:16:05;14;13;
69123;PMS5003;56232;53.384;-2.732;2023-05-07T12:18:29;14;14;
69123;PMS5003;56232;53.384;-2.732;2023-05-07T12:20:56;9;9;
69123;PMS5003;56232;53.384;-2.732;2023-05-07T12:23:21;10;9;
69123;PMS5003;56232;53.384;-2.732;2023-05-07T12:25:46;9;9;
69123;PMS5003;56232;53.384;-2.732;2023-05-07T12:28:12;6;6;
69123;PMS5003;56232;53.384;-2.732;2023-05-07T12:30:37;10;9;
69123;PMS5003;56232;53.384;-2.732;2023-05-07T12:33:03;12;11;
69123;PMS5003;56232;53.384;-2.732;2023-05-07T12:35:28;8;8;
69123;PMS5003;56232;53.384;-2.732;2023-05-07T12:37:55;7;6;
69123;PMS5003;56232;53.384;-2.732;2023-05-07T12:40:19;5;4;
69123;PMS5003;56232;53.384;-2.732;2023-05-07T12:42:44;8;8;
69123;PMS5003;56232;53.384;-2.732;2023-05-07T12:45:10;10;10;
69123;PMS5003;56232;53.384;-2.732;2023-05-07T12:47:50;11;10;
69123;PMS5003;56232;53.384;-2.732;2023-05-07T12:50:01;7;7;
69123;PMS5003;56232;53.384;-2.732;2023-05-07T12:52:27;6;5;
69123;PMS5003;56232;53.384;-2.732;2023-05-07T12:54:52;5;5;
69123;PMS5003;56232;53.384;-2.732;2023-05-07T12:57:18;7;7;
69123;PMS5003;56232;53.384;-2.732;2023-05-07T12:59:43;8;8;
69123;PMS5003;56232;53.384;-2.732;2023-05-07T13:02:09;7;6;
69123;PMS5003;56232;53.384;-2.732;2023-05-07T13:04:34;8;8;
69123;PMS5003;56232;53.384;-2.732;2023-05-07T13:07:00;10;7;
69123;PMS5003;56232;53.384;-2.732;2023-05-07T13:09:25;6;6;
69123;PMS5003;56232;53.384;-2.732;2023-05-07T13:11:51;7;6;
69123;PMS5003;56232;53.384;-2.732;2023-05-07T13:14:16;5;4;
69123;PMS5003;56232;53.384;-2.732;2023-05-07T13:16:42;5;5;
69123;PMS5003;56232;53.384;-2.732;2023-05-07T13:19:07;5;5;
69123;PMS5003;56232;53.384;-2.732;2023-05-07T13:21:33;9;9;
69123;PMS5003;56232;53.384;-2.732;2023-05-07T13:23:58;13;13;
69123;PMS5003;56232;53.384;-2.732;2023-05-07T13:26:24;15;14;
69123;PMS5003;56232;53.384;-2.732;2023-05-07T13:28:49;14;14;
69123;PMS5003;56232;53.384;-2.732;2023-05-07T13:31:15;14;14;
69123;PMS5003;56232;53.384;-2.732;2023-05-07T13:33:41;14;14;
69123;PMS5003;56232;53.384;-2.732;2023-05-07T13:36:06;15;15;
69123;PMS5003;56232;53.384;-2.732;2023-05-07T13:38:32;13;13;
69123;PMS5003;56232;53.384;-2.732;2023-05-07T13:40:57;15;14;
69123;PMS5003;56232;53.384;-2.732;2023-05-07T13:43:23;14;14;
69123;PMS5003;56232;53.384;-2.732;2023-05-07T13:45:48;14;13;
69123;PMS5003;56232;53.384;-2.732;2023-05-07T13:48:14;12;12;
69123;PMS5003;56232;53.384;-2.732;2023-05-07T13:50:39;13;13;
69123;PMS5003;56232;53.384;-2.732;2023-05-07T13:53:07;14;14;
69123;PMS5003;56232;53.384;-2.732;2023-05-07T13:55:31;8;8;
69123;PMS5003;56232;53.384;-2.732;2023-05-07T13:57:57;9;9;
69123;PMS5003;56232;53.384;-2.732;2023-05-07T14:00:22;8;8;
69123;PMS5003;56232;53.384;-2.732;2023-05-07T14:02:47;9;9;
69123;PMS5003;56232;53.384;-2.732;2023-05-07T14:05:13;9;9;
69123;PMS5003;56232;53.384;-2.732;2023-05-07T14:07:38;8;6;
69123;PMS5003;56232;53.384;-2.732;2023-05-07T14:10:05;9;8;
69123;PMS5003;56232;53.384;-2.732;2023-05-07T14:12:29;8;8;
69123;PMS5003;56232;53.384;-2.732;2023-05-07T14:14:55;11;11;
69123;PMS5003;56232;53.384;-2.732;2023-05-07T14:17:20;8;8;
69123;PMS5003;56232;53.384;-2.732;2023-05-07T14:19:46;9;8;
69123;PMS5003;56232;53.384;-2.732;2023-05-07T14:22:12;5;5;
69123;PMS5003;56232;53.384;-2.732;2023-05-07T14:24:37;7;7;
69123;PMS5003;56232;53.384;-2.732;2023-05-07T14:27:03;5;5;
69123;PMS5003;56232;53.384;-2.732;2023-05-07T14:29:28;9;7;
69123;PMS5003;56232;53.384;-2.732;2023-05-07T14:31:54;7;6;
69123;PMS5003;56232;53.384;-2.732;2023-05-07T14:34:19;5;5;
69123;PMS5003;56232;53.384;-2.732;2023-05-07T14:36:45;6;6;
69123;PMS5003;56232;53.384;-2.732;2023-05-07T14:39:10;5;5;
69123;PMS5003;56232;53.384;-2.732;2023-05-07T14:41:35;4;4;
69123;PMS5003;56232;53.384;-2.732;2023-05-07T14:44:01;5;5;
69123;PMS5003;56232;53.384;-2.732;2023-05-07T14:46:26;3;3;
69123;PMS5003;56232;53.384;-2.732;2023-05-07T14:48:52;5;5;
69123;PMS5003;56232;53.384;-2.732;2023-05-07T14:51:17;4;4;
69123;PMS5003;56232;53.384;-2.732;2023-05-07T14:53:44;6;6;
69123;PMS5003;56232;53.384;-2.732;2023-05-07T14:56:09;7;7;
69123;PMS5003;56232;53.384;-2.732;2023-05-07T14:58:34;6;6;
69123;PMS5003;56232;53.384;-2.732;2023-05-07T15:01:00;7;7;
69123;PMS5003;56232;53.384;-2.732;2023-05-07T15:03:25;6;6;
69123;PMS5003;56232;53.384;-2.732;2023-05-07T15:05:51;8;7;
69123;PMS5003;56232;53.384;-2.732;2023-05-07T15:08:16;4;3;
69123;PMS5003;56232;53.384;-2.732;2023-05-07T15:10:42;7;6;
69123;PMS5003;56232;53.384;-2.732;2023-05-07T15:13:08;8;6;
69123;PMS5003;56232;53.384;-2.732;2023-05-07T15:15:33;5;5;
69123;PMS5003;56232;53.384;-2.732;2023-05-07T15:17:59;4;4;
69123;PMS5003;56232;53.384;-2.732;2023-05-07T15:20:24;4;4;
69123;PMS5003;56232;53.384;-2.732;2023-05-07T15:22:50;8;6;
69123;PMS5003;56232;53.384;-2.732;2023-05-07T15:25:15;7;6;
69123;PMS5003;56232;53.384;-2.732;2023-05-07T15:27:40;26;25;
69123;PMS5003;56232;53.384;-2.732;2023-05-07T15:30:06;21;21;
69123;PMS5003;56232;53.384;-2.732;2023-05-07T15:32:31;7;7;
69123;PMS5003;56232;53.384;-2.732;2023-05-07T15:34:57;6;5;
69123;PMS5003;56232;53.384;-2.732;2023-05-07T15:37:22;5;5;
69123;PMS5003;56232;53.384;-2.732;2023-05-07T15:39:48;5;5;
69123;PMS5003;56232;53.384;-2.732;2023-05-07T15:42:13;6;5;
69123;PMS5003;56232;53.384;-2.732;2023-05-07T15:44:39;3;2;
69123;PMS5003;56232;53.384;-2.732;2023-05-07T15:47:05;6;6;
69123;PMS5003;56232;53.384;-2.732;2023-05-07T15:49:30;4;4;
69123;PMS5003;56232;53.384;-2.732;2023-05-07T15:51:56;2;2;
69123;PMS5003;56232;53.384;-2.732;2023-05-07T15:54:21;5;3;
69123;PMS5003;56232;53.384;-2.732;2023-05-07T15:56:47;3;3;
69123;PMS5003;56232;53.384;-2.732;2023-05-07T15:59:12;2;2;
69123;PMS5003;56232;53.384;-2.732;2023-05-07T16:01:38;3;3;
69123;PMS5003;56232;53.384;-2.732;2023-05-07T16:04:05;5;4;
69123;PMS5003;56232;53.384;-2.732;2023-05-07T16:06:29;8;8;
69123;PMS5003;56232;53.384;-2.732;2023-05-07T16:08:54;6;6;
69123;PMS5003;56232;53.384;-2.732;2023-05-07T16:11:20;6;5;
69123;PMS5003;56232;53.384;-2.732;2023-05-07T16:13:45;4;4;
69123;PMS5003;56232;53.384;-2.732;2023-05-07T16:16:11;3;3;
69123;PMS5003;56232;53.384;-2.732;2023-05-07T16:18:36;3;3;
69123;PMS5003;56232;53.384;-2.732;2023-05-07T16:21:02;4;4;
69123;PMS5003;56232;53.384;-2.732;2023-05-07T16:23:27;3;3;
69123;PMS5003;56232;53.384;-2.732;2023-05-07T16:25:53;6;5;